sensor_id;sensor_type;location;lat;lon;timestamp;pressure;altitude;pressure_sealevel;temperature;humidity
16580;BME280;8402;51.466;6.806;2022-09-06T00:02:10;101223.59;;;23.83;54.64
16580;BME280;8402;51.466;6.806;2022-09-06T00:04:37;101217.25;;;23.72;55.12
16580;BME280;8402;51.466;6.806;2022-09-06T00:07:05;101218.81;;;23.70;55.13
16580;BME280;8402;51.466;6.806;2022-09-06T00:09:33;101221.19;;;23.71;55.26
16580;BME280;8402;51.466;6.806;2022-09-06T00:12:02;101224.38;;;23.73;55.26
16580;BME280;8402;51.466;6.806;2022-09-06T00:14:30;101233.50;;;23.74;55.23
16580;BME280;8402;51.466;6.806;2022-09-06T00:16:59;101244.56;;;23.74;55.23
16580;BME280;8402;51.466;6.806;2022-09-06T00:19:27;101241.00;;;23.73;54.94
16580;BME280;8402;51.466;6.806;2022-09-06T00:21:55;101233.06;;;23.68;55.06
16580;BME280;8402;51.466;6.806;2022-09-06T00:24:23;101241.38;;;23.68;54.69
16580;BME280;8402;51.466;6.806;2022-09-06T00:26:50;101245.34;;;23.67;54.34
16580;BME280;8402;51.466;6.806;2022-09-06T00:29:18;101237.78;;;23.64;54.79
16580;BME280;8402;51.466;6.806;2022-09-06T00:31:46;101248.81;;;23.53;55.19
16580;BME280;8402;51.466;6.806;2022-09-06T00:34:15;101249.59;;;23.43;55.69
16580;BME280;8402;51.466;6.806;2022-09-06T00:36:43;101248.75;;;23.43;55.43
16580;BME280;8402;51.466;6.806;2022-09-06T00:39:11;101254.34;;;23.46;55.55
16580;BME280;8402;51.466;6.806;2022-09-06T00:41:39;101257.53;;;23.52;55.51
16580;BME280;8402;51.466;6.806;2022-09-06T00:44:07;101268.22;;;23.57;55.32
16580;BME280;8402;51.466;6.806;2022-09-06T00:46:36;101267.06;;;23.58;55.24
16580;BME280;8402;51.466;6.806;2022-09-06T00:49:08;101295.16;;;23.60;55.43
16580;BME280;8402;51.466;6.806;2022-09-06T00:51:39;101291.59;;;23.59;55.39
16580;BME280;8402;51.466;6.806;2022-09-06T00:54:08;101282.06;;;23.57;55.37
16580;BME280;8402;51.466;6.806;2022-09-06T00:56:39;101283.69;;;23.58;55.29
16580;BME280;8402;51.466;6.806;2022-09-06T00:59:08;101277.38;;;23.61;54.96
16580;BME280;8402;51.466;6.806;2022-09-06T01:01:36;101273.41;;;23.62;54.99
16580;BME280;8402;51.466;6.806;2022-09-06T01:04:04;101287.66;;;23.64;54.92
16580;BME280;8402;51.466;6.806;2022-09-06T01:06:43;101288.09;;;23.66;55.10
16580;BME280;8402;51.466;6.806;2022-09-06T01:09:23;101290.84;;;23.66;55.39
16580;BME280;8402;51.466;6.806;2022-09-06T01:12:04;101291.66;;;23.67;55.28
16580;BME280;8402;51.466;6.806;2022-09-06T01:14:51;101309.00;;;23.60;55.66
16580;BME280;8402;51.466;6.806;2022-09-06T01:17:36;101311.34;;;23.51;56.13
16580;BME280;8402;51.466;6.806;2022-09-06T01:20:31;101331.09;;;23.46;56.60
16580;BME280;8402;51.466;6.806;2022-09-06T01:23:36;101322.38;;;23.44;56.44
16580;BME280;8402;51.466;6.806;2022-09-06T01:26:34;101330.25;;;23.42;56.67
16580;BME280;8402;51.466;6.806;2022-09-06T01:29:11;101337.38;;;23.43;56.24
16580;BME280;8402;51.466;6.806;2022-09-06T01:31:45;101337.38;;;23.43;55.70
16580;BME280;8402;51.466;6.806;2022-09-06T01:34:20;101334.22;;;23.37;56.60
16580;BME280;8402;51.466;6.806;2022-09-06T01:36:54;101338.16;;;23.36;56.79
16580;BME280;8402;51.466;6.806;2022-09-06T01:39:39;101324.69;;;23.34;56.63
16580;BME280;8402;51.466;6.806;2022-09-06T01:42:11;101326.28;;;23.35;57.00
16580;BME280;8402;51.466;6.806;2022-09-06T01:44:44;101322.31;;;23.33;56.99
16580;BME280;8402;51.466;6.806;2022-09-06T01:47:22;101320.69;;;23.28;56.97
16580;BME280;8402;51.466;6.806;2022-09-06T01:50:10;101324.66;;;23.27;57.55
16580;BME280;8402;51.466;6.806;2022-09-06T01:52:50;101321.09;;;23.27;58.58
16580;BME280;8402;51.466;6.806;2022-09-06T01:55:28;101323.06;;;23.23;58.01
16580;BME280;8402;51.466;6.806;2022-09-06T01:58:10;101328.59;;;23.26;58.02
16580;BME280;8402;51.466;6.806;2022-09-06T02:00:47;101323.88;;;23.30;58.13
16580;BME280;8402;51.466;6.806;2022-09-06T02:03:27;101321.91;;;23.34;58.67
16580;BME280;8402;51.466;6.806;2022-09-06T02:06:01;101319.97;;;23.39;59.54
16580;BME280;8402;51.466;6.806;2022-09-06T02:08:33;101306.53;;;23.41;60.39
16580;BME280;8402;51.466;6.806;2022-09-06T02:11:05;101302.16;;;23.40;60.51
16580;BME280;8402;51.466;6.806;2022-09-06T02:13:36;101298.22;;;23.37;61.44
16580;BME280;8402;51.466;6.806;2022-09-06T02:16:07;101292.28;;;23.39;61.61
16580;BME280;8402;51.466;6.806;2022-09-06T02:18:40;101296.25;;;23.41;61.13
16580;BME280;8402;51.466;6.806;2022-09-06T02:21:12;101297.84;;;23.46;62.05
16580;BME280;8402;51.466;6.806;2022-09-06T02:23:42;101293.91;;;23.47;61.96
16580;BME280;8402;51.466;6.806;2022-09-06T02:26:15;101293.50;;;23.45;62.62
16580;BME280;8402;51.466;6.806;2022-09-06T02:28:44;101292.28;;;23.39;62.85
16580;BME280;8402;51.466;6.806;2022-09-06T02:31:19;101291.50;;;23.38;62.91
16580;BME280;8402;51.466;6.806;2022-09-06T02:33:49;101300.97;;;23.37;62.99
16580;BME280;8402;51.466;6.806;2022-09-06T02:36:18;101278.84;;;23.37;63.00
16580;BME280;8402;51.466;6.806;2022-09-06T02:38:46;101272.50;;;23.37;63.21
16580;BME280;8402;51.466;6.806;2022-09-06T02:41:17;101266.97;;;23.37;63.64
16580;BME280;8402;51.466;6.806;2022-09-06T02:43:48;101266.16;;;23.36;63.77
16580;BME280;8402;51.466;6.806;2022-09-06T02:46:17;101266.97;;;23.37;63.94
16580;BME280;8402;51.466;6.806;2022-09-06T02:48:45;101281.97;;;23.35;64.17
16580;BME280;8402;51.466;6.806;2022-09-06T02:51:13;101271.69;;;23.32;64.10
16580;BME280;8402;51.466;6.806;2022-09-06T02:53:41;101274.06;;;23.30;64.58
16580;BME280;8402;51.466;6.806;2022-09-06T02:56:10;101266.50;;;23.27;64.25
16580;BME280;8402;51.466;6.806;2022-09-06T02:58:37;101258.19;;;23.24;64.65
16580;BME280;8402;51.466;6.806;2022-09-06T03:01:05;101252.63;;;23.20;65.38
16580;BME280;8402;51.466;6.806;2022-09-06T03:03:35;101247.81;;;23.03;66.34
16580;BME280;8402;51.466;6.806;2022-09-06T03:06:03;101239.84;;;22.98;66.31
16580;BME280;8402;51.466;6.806;2022-09-06T03:08:30;101246.97;;;22.99;66.32
16580;BME280;8402;51.466;6.806;2022-09-06T03:11:00;101245.44;;;23.01;66.44
16580;BME280;8402;51.466;6.806;2022-09-06T03:13:28;101237.53;;;23.07;66.68
16580;BME280;8402;51.466;6.806;2022-09-06T03:15:57;101227.28;;;23.11;66.44
16580;BME280;8402;51.466;6.806;2022-09-06T03:18:26;101224.16;;;23.16;66.36
16580;BME280;8402;51.466;6.806;2022-09-06T03:20:57;101212.28;;;23.19;66.77
16580;BME280;8402;51.466;6.806;2022-09-06T03:23:26;101206.69;;;23.05;67.90
16580;BME280;8402;51.466;6.806;2022-09-06T03:25:55;101201.06;;;22.91;67.99
16580;BME280;8402;51.466;6.806;2022-09-06T03:28:23;101198.31;;;22.91;67.79
16580;BME280;8402;51.466;6.806;2022-09-06T03:30:51;101212.16;;;22.94;67.94
16580;BME280;8402;51.466;6.806;2022-09-06T03:33:20;101212.97;;;22.98;68.00
16580;BME280;8402;51.466;6.806;2022-09-06T03:35:49;101219.72;;;23.01;68.26
16580;BME280;8402;51.466;6.806;2022-09-06T03:38:19;101229.59;;;23.02;68.22
16580;BME280;8402;51.466;6.806;2022-09-06T03:40:47;101237.91;;;23.02;67.67
16580;BME280;8402;51.466;6.806;2022-09-06T03:43:16;101237.91;;;23.05;67.53
16580;BME280;8402;51.466;6.806;2022-09-06T03:45:45;101244.63;;;23.04;67.74
16580;BME280;8402;51.466;6.806;2022-09-06T03:48:14;101256.09;;;23.03;67.48
16580;BME280;8402;51.466;6.806;2022-09-06T03:50:43;101247.81;;;23.03;67.72
16580;BME280;8402;51.466;6.806;2022-09-06T03:53:13;101241.47;;;23.02;67.60
16580;BME280;8402;51.466;6.806;2022-09-06T03:55:45;101235.91;;;22.99;67.56
16580;BME280;8402;51.466;6.806;2022-09-06T03:58:13;101227.97;;;22.94;67.67
16580;BME280;8402;51.466;6.806;2022-09-06T04:00:42;101225.59;;;22.92;67.62
16580;BME280;8402;51.466;6.806;2022-09-06T04:03:11;101227.94;;;22.90;67.83
16580;BME280;8402;51.466;6.806;2022-09-06T04:05:39;101237.44;;;22.89;67.99
16580;BME280;8402;51.466;6.806;2022-09-06T04:08:11;101222.81;;;22.89;67.82
16580;BME280;8402;51.466;6.806;2022-09-06T04:10:39;101214.91;;;22.87;67.99
16580;BME280;8402;51.466;6.806;2022-09-06T04:13:08;101214.50;;;22.89;67.83
16580;BME280;8402;51.466;6.806;2022-09-06T04:15:36;101210.16;;;22.88;68.03
16580;BME280;8402;51.466;6.806;2022-09-06T04:18:04;101209.72;;;22.86;68.16
16580;BME280;8402;51.466;6.806;2022-09-06T04:20:34;101205.72;;;22.79;67.93
16580;BME280;8402;51.466;6.806;2022-09-06T04:23:02;101209.66;;;22.78;68.18
16580;BME280;8402;51.466;6.806;2022-09-06T04:25:30;101208.06;;;22.77;68.27
16580;BME280;8402;51.466;6.806;2022-09-06T04:27:59;101214.03;;;22.79;68.57
16580;BME280;8402;51.466;6.806;2022-09-06T04:30:29;101223.91;;;22.80;68.58
16580;BME280;8402;51.466;6.806;2022-09-06T04:32:57;101221.56;;;22.83;68.55
16580;BME280;8402;51.466;6.806;2022-09-06T04:35:24;101229.53;;;22.88;68.48
16580;BME280;8402;51.466;6.806;2022-09-06T04:37:52;101233.09;;;22.92;68.27
16580;BME280;8402;51.466;6.806;2022-09-06T04:40:20;101237.84;;;22.91;68.15
16580;BME280;8402;51.466;6.806;2022-09-06T04:42:48;101237.44;;;22.93;68.36
16580;BME280;8402;51.466;6.806;2022-09-06T04:45:16;101238.66;;;22.95;68.44
16580;BME280;8402;51.466;6.806;2022-09-06T04:47:45;101249.34;;;22.97;68.29
16580;BME280;8402;51.466;6.806;2022-09-06T04:50:13;101246.97;;;22.95;68.58
16580;BME280;8402;51.466;6.806;2022-09-06T04:52:41;101254.88;;;22.97;68.38
16580;BME280;8402;51.466;6.806;2022-09-06T04:55:09;101258.81;;;22.96;68.26
16580;BME280;8402;51.466;6.806;2022-09-06T04:57:37;101247.75;;;22.96;68.33
16580;BME280;8402;51.466;6.806;2022-09-06T05:00:12;101246.16;;;22.95;68.12
16580;BME280;8402;51.466;6.806;2022-09-06T05:02:39;101245.72;;;22.89;68.34
16580;BME280;8402;51.466;6.806;2022-09-06T05:05:09;101242.09;;;22.82;68.49
16580;BME280;8402;51.466;6.806;2022-09-06T05:07:37;101245.56;;;22.71;68.34
16580;BME280;8402;51.466;6.806;2022-09-06T05:10:05;101248.31;;;22.68;68.46
16580;BME280;8402;51.466;6.806;2022-09-06T05:12:33;101249.13;;;22.68;68.31
16580;BME280;8402;51.466;6.806;2022-09-06T05:15:08;101247.47;;;22.60;68.46
16580;BME280;8402;51.466;6.806;2022-09-06T05:17:36;101256.91;;;22.56;68.59
16580;BME280;8402;51.466;6.806;2022-09-06T05:20:04;101249.00;;;22.50;68.57
16580;BME280;8402;51.466;6.806;2022-09-06T05:22:34;101252.50;;;22.44;68.69
16580;BME280;8402;51.466;6.806;2022-09-06T05:25:02;101251.66;;;22.40;68.73
16580;BME280;8402;51.466;6.806;2022-09-06T05:27:29;101252.84;;;22.39;68.61
16580;BME280;8402;51.466;6.806;2022-09-06T05:29:57;101258.78;;;22.41;68.60
16580;BME280;8402;51.466;6.806;2022-09-06T05:32:25;101270.25;;;22.43;68.88
16580;BME280;8402;51.466;6.806;2022-09-06T05:34:53;101275.78;;;22.43;68.63
16580;BME280;8402;51.466;6.806;2022-09-06T05:37:21;101263.13;;;22.42;68.79
16580;BME280;8402;51.466;6.806;2022-09-06T05:39:50;101267.06;;;22.41;68.79
16580;BME280;8402;51.466;6.806;2022-09-06T05:42:18;101258.38;;;22.39;68.63
16580;BME280;8402;51.466;6.806;2022-09-06T05:44:46;101265.09;;;22.41;68.76
16580;BME280;8402;51.466;6.806;2022-09-06T05:47:14;101259.97;;;22.40;68.79
16580;BME280;8402;51.466;6.806;2022-09-06T05:49:42;101261.53;;;22.41;68.76
16580;BME280;8402;51.466;6.806;2022-09-06T05:52:09;101264.72;;;22.43;68.43
16580;BME280;8402;51.466;6.806;2022-09-06T05:54:37;101270.25;;;22.43;68.50
16580;BME280;8402;51.466;6.806;2022-09-06T05:57:06;101266.31;;;22.44;68.41
16580;BME280;8402;51.466;6.806;2022-09-06T05:59:34;101269.50;;;22.46;68.53
16580;BME280;8402;51.466;6.806;2022-09-06T06:02:02;101277.44;;;22.51;68.25
16580;BME280;8402;51.466;6.806;2022-09-06T06:04:33;101270.72;;;22.52;68.19
16580;BME280;8402;51.466;6.806;2022-09-06T06:07:01;101267.97;;;22.52;68.34
16580;BME280;8402;51.466;6.806;2022-09-06T06:09:29;101267.91;;;22.45;68.25
16580;BME280;8402;51.466;6.806;2022-09-06T06:11:57;101268.66;;;22.42;68.27
16580;BME280;8402;51.466;6.806;2022-09-06T06:14:26;101265.09;;;22.38;68.81
16580;BME280;8402;51.466;6.806;2022-09-06T06:16:53;101264.59;;;22.29;69.06
16580;BME280;8402;51.466;6.806;2022-09-06T06:19:23;101273.25;;;22.27;68.88
16580;BME280;8402;51.466;6.806;2022-09-06T06:21:52;101256.34;;;22.32;68.92
16580;BME280;8402;51.466;6.806;2022-09-06T06:24:21;101259.16;;;22.39;68.69
16580;BME280;8402;51.466;6.806;2022-09-06T06:26:49;101256.06;;;22.48;68.24
16580;BME280;8402;51.466;6.806;2022-09-06T06:29:17;101256.91;;;22.56;68.44
16580;BME280;8402;51.466;6.806;2022-09-06T06:31:46;101256.97;;;22.59;68.56
16580;BME280;8402;51.466;6.806;2022-09-06T06:34:14;101257.75;;;22.63;68.14
16580;BME280;8402;51.466;6.806;2022-09-06T06:36:43;101257.03;;;22.70;67.95
16580;BME280;8402;51.466;6.806;2022-09-06T06:39:11;101257.91;;;22.85;67.73
16580;BME280;8402;51.466;6.806;2022-09-06T06:41:39;101260.50;;;23.08;67.29
16580;BME280;8402;51.466;6.806;2022-09-06T06:44:07;101255.06;;;23.32;67.26
16580;BME280;8402;51.466;6.806;2022-09-06T06:46:36;101252.81;;;23.59;66.77
16580;BME280;8402;51.466;6.806;2022-09-06T06:49:06;101248.97;;;23.89;66.11
16580;BME280;8402;51.466;6.806;2022-09-06T06:51:34;101250.97;;;24.03;64.63
16580;BME280;8402;51.466;6.806;2022-09-06T06:54:04;101249.00;;;24.28;64.69
16580;BME280;8402;51.466;6.806;2022-09-06T06:56:33;101244.28;;;24.54;63.67
16580;BME280;8402;51.466;6.806;2022-09-06T06:59:03;101248.63;;;24.76;63.24
16580;BME280;8402;51.466;6.806;2022-09-06T07:01:33;101240.25;;;25.01;62.26
16580;BME280;8402;51.466;6.806;2022-09-06T07:04:02;101248.13;;;25.24;61.41
16580;BME280;8402;51.466;6.806;2022-09-06T07:06:44;101251.59;;;25.49;60.83
16580;BME280;8402;51.466;6.806;2022-09-06T07:09:33;101243.94;;;25.78;59.82
16580;BME280;8402;51.466;6.806;2022-09-06T07:12:22;101235.53;;;25.89;58.53
16580;BME280;8402;51.466;6.806;2022-09-06T07:14:50;101230.34;;;25.95;57.50
16580;BME280;8402;51.466;6.806;2022-09-06T07:17:18;101233.44;;;26.08;58.44
16580;BME280;8402;51.466;6.806;2022-09-06T07:19:46;101232.50;;;26.25;57.73
16580;BME280;8402;51.466;6.806;2022-09-06T07:22:35;101244.22;;;26.50;57.08
16580;BME280;8402;51.466;6.806;2022-09-06T07:25:04;101239.19;;;26.79;56.93
16580;BME280;8402;51.466;6.806;2022-09-06T07:27:32;101236.53;;;27.06;56.51
16580;BME280;8402;51.466;6.806;2022-09-06T07:30:17;101231.41;;;27.35;54.83
16580;BME280;8402;51.466;6.806;2022-09-06T07:32:45;101233.97;;;27.53;54.77
16580;BME280;8402;51.466;6.806;2022-09-06T07:35:13;101231.41;;;27.66;54.21
16580;BME280;8402;51.466;6.806;2022-09-06T07:37:42;101231.06;;;27.91;53.91
16580;BME280;8402;51.466;6.806;2022-09-06T07:40:10;101232.75;;;28.12;53.50
16580;BME280;8402;51.466;6.806;2022-09-06T07:42:38;101240.66;;;28.17;50.80
16580;BME280;8402;51.466;6.806;2022-09-06T07:45:07;101243.00;;;28.18;50.91
16580;BME280;8402;51.466;6.806;2022-09-06T07:47:35;101233.31;;;28.27;51.47
16580;BME280;8402;51.466;6.806;2022-09-06T07:50:23;101225.06;;;28.43;50.04
16580;BME280;8402;51.466;6.806;2022-09-06T07:53:13;101229.56;;;28.60;49.59
16580;BME280;8402;51.466;6.806;2022-09-06T07:55:51;101224.81;;;28.81;49.85
16580;BME280;8402;51.466;6.806;2022-09-06T07:58:19;101233.53;;;28.83;48.97
16580;BME280;8402;51.466;6.806;2022-09-06T08:00:48;101235.13;;;28.84;47.11
16580;BME280;8402;51.466;6.806;2022-09-06T08:03:16;101237.31;;;28.96;47.93
16580;BME280;8402;51.466;6.806;2022-09-06T08:05:47;101232.53;;;29.16;48.15
16580;BME280;8402;51.466;6.806;2022-09-06T08:08:37;101235.22;;;29.40;47.90
16580;BME280;8402;51.466;6.806;2022-09-06T08:11:27;101242.88;;;29.36;45.95
16580;BME280;8402;51.466;6.806;2022-09-06T08:13:56;101239.88;;;29.46;47.24
16580;BME280;8402;51.466;6.806;2022-09-06T08:16:25;101236.09;;;29.37;46.28
16580;BME280;8402;51.466;6.806;2022-09-06T08:18:55;101240.03;;;29.39;46.78
16580;BME280;8402;51.466;6.806;2022-09-06T08:21:25;101236.19;;;29.69;46.48
16580;BME280;8402;51.466;6.806;2022-09-06T08:23:56;101244.63;;;29.85;45.35
16580;BME280;8402;51.466;6.806;2022-09-06T08:26:26;101243.75;;;29.88;44.81
16580;BME280;8402;51.466;6.806;2022-09-06T08:28:55;101238.16;;;29.88;44.74
16580;BME280;8402;51.466;6.806;2022-09-06T08:31:26;101242.03;;;29.95;45.06
16580;BME280;8402;51.466;6.806;2022-09-06T08:33:55;101234.53;;;30.08;44.82
16580;BME280;8402;51.466;6.806;2022-09-06T08:36:23;101229.63;;;30.12;44.23
16580;BME280;8402;51.466;6.806;2022-09-06T08:38:52;101234.88;;;30.10;44.23
16580;BME280;8402;51.466;6.806;2022-09-06T08:41:24;101231.13;;;30.17;43.98
16580;BME280;8402;51.466;6.806;2022-09-06T08:43:54;101235.41;;;30.37;43.80
16580;BME280;8402;51.466;6.806;2022-09-06T08:46:49;101231.00;;;30.53;43.38
16580;BME280;8402;51.466;6.806;2022-09-06T08:49:19;101231.16;;;30.62;43.15
16580;BME280;8402;51.466;6.806;2022-09-06T08:52:02;101231.28;;;30.42;41.20
16580;BME280;8402;51.466;6.806;2022-09-06T08:54:36;101233.47;;;30.34;42.22
16580;BME280;8402;51.466;6.806;2022-09-06T08:57:12;101232.25;;;30.52;42.83
16580;BME280;8402;51.466;6.806;2022-09-06T08:59:42;101216.13;;;30.72;42.10
16580;BME280;8402;51.466;6.806;2022-09-06T09:02:12;101222.31;;;30.80;41.29
16580;BME280;8402;51.466;6.806;2022-09-06T09:04:43;101215.16;;;30.62;41.41
16580;BME280;8402;51.466;6.806;2022-09-06T09:07:23;101222.94;;;30.71;41.58
16580;BME280;8402;51.466;6.806;2022-09-06T09:09:57;101217.19;;;30.91;41.96
16580;BME280;8402;51.466;6.806;2022-09-06T09:12:30;101220.75;;;31.08;41.56
16580;BME280;8402;51.466;6.806;2022-09-06T09:15:04;101216.59;;;31.12;40.24
16580;BME280;8402;51.466;6.806;2022-09-06T09:17:34;101216.69;;;31.09;40.56
16580;BME280;8402;51.466;6.806;2022-09-06T09:20:03;101209.81;;;31.26;41.39
16580;BME280;8402;51.466;6.806;2022-09-06T09:22:34;101211.06;;;31.38;40.41
16580;BME280;8402;51.466;6.806;2022-09-06T09:25:03;101205.69;;;31.56;41.08
16580;BME280;8402;51.466;6.806;2022-09-06T09:27:35;101197.28;;;31.69;40.46
16580;BME280;8402;51.466;6.806;2022-09-06T09:30:05;101201.31;;;31.68;38.93
16580;BME280;8402;51.466;6.806;2022-09-06T09:32:54;101193.25;;;31.70;40.04
16580;BME280;8402;51.466;6.806;2022-09-06T09:35:28;101189.78;;;31.78;39.67
16580;BME280;8402;51.466;6.806;2022-09-06T09:38:06;101191.44;;;31.76;38.60
16580;BME280;8402;51.466;6.806;2022-09-06T09:40:39;101178.88;;;31.68;39.15
16580;BME280;8402;51.466;6.806;2022-09-06T09:43:13;101181.50;;;31.88;39.60
16580;BME280;8402;51.466;6.806;2022-09-06T09:45:43;101183.22;;;32.20;39.45
16580;BME280;8402;51.466;6.806;2022-09-06T09:48:20;101184.69;;;32.12;37.99
16580;BME280;8402;51.466;6.806;2022-09-06T09:50:50;101183.44;;;32.13;39.38
16580;BME280;8402;51.466;6.806;2022-09-06T09:53:19;101188.03;;;32.32;39.09
16580;BME280;8402;51.466;6.806;2022-09-06T09:55:48;101173.81;;;32.48;38.52
16580;BME280;8402;51.466;6.806;2022-09-06T09:58:29;101182.72;;;32.69;38.85
16580;BME280;8402;51.466;6.806;2022-09-06T10:01:10;101170.75;;;32.90;38.52
16580;BME280;8402;51.466;6.806;2022-09-06T10:03:39;101163.53;;;33.11;38.00
16580;BME280;8402;51.466;6.806;2022-09-06T10:06:27;101159.69;;;33.27;37.16
16580;BME280;8402;51.466;6.806;2022-09-06T10:09:18;101162.19;;;33.25;37.34
16580;BME280;8402;51.466;6.806;2022-09-06T10:11:52;101162.28;;;33.43;36.95
16580;BME280;8402;51.466;6.806;2022-09-06T10:14:28;101161.69;;;33.48;35.93
16580;BME280;8402;51.466;6.806;2022-09-06T10:16:57;101160.78;;;33.51;36.23
16580;BME280;8402;51.466;6.806;2022-09-06T10:19:38;101159.03;;;33.45;36.62
16580;BME280;8402;51.466;6.806;2022-09-06T10:22:27;101160.31;;;33.53;35.57
16580;BME280;8402;51.466;6.806;2022-09-06T10:28:05;101172.34;;;33.53;35.42
16580;BME280;8402;51.466;6.806;2022-09-06T10:30:43;101166.94;;;33.37;35.50
16580;BME280;8402;51.466;6.806;2022-09-06T10:33:25;101180.63;;;33.26;35.54
16580;BME280;8402;51.466;6.806;2022-09-06T10:35:59;101175.13;;;33.44;35.95
16580;BME280;8402;51.466;6.806;2022-09-06T10:38:36;101168.66;;;33.65;36.15
16580;BME280;8402;51.466;6.806;2022-09-06T10:41:36;101163.34;;;33.77;35.50
16580;BME280;8402;51.466;6.806;2022-09-06T10:44:21;101156.53;;;33.87;34.86
16580;BME280;8402;51.466;6.806;2022-09-06T10:47:01;101150.47;;;33.98;34.66
16580;BME280;8402;51.466;6.806;2022-09-06T10:49:36;101152.50;;;34.06;35.58
16580;BME280;8402;51.466;6.806;2022-09-06T10:52:06;101154.53;;;34.15;34.77
16580;BME280;8402;51.466;6.806;2022-09-06T10:54:38;101155.34;;;34.25;34.99
16580;BME280;8402;51.466;6.806;2022-09-06T10:57:10;101146.91;;;34.25;34.70
16580;BME280;8402;51.466;6.806;2022-09-06T11:00:05;101143.78;;;34.41;34.64
16580;BME280;8402;51.466;6.806;2022-09-06T11:02:44;101142.69;;;34.47;34.30
16580;BME280;8402;51.466;6.806;2022-09-06T11:05:39;101139.72;;;34.60;34.20
16580;BME280;8402;51.466;6.806;2022-09-06T11:08:11;101157.09;;;34.68;34.24
16580;BME280;8402;51.466;6.806;2022-09-06T11:11:08;101155.03;;;34.78;34.51
16580;BME280;8402;51.466;6.806;2022-09-06T11:13:37;101155.03;;;34.78;33.59
16580;BME280;8402;51.466;6.806;2022-09-06T11:16:08;101151.59;;;34.64;33.75
16580;BME280;8402;51.466;6.806;2022-09-06T11:18:40;101153.44;;;34.21;32.85
16580;BME280;8402;51.466;6.806;2022-09-06T11:24:14;101144.72;;;34.38;34.46
16580;BME280;8402;51.466;6.806;2022-09-06T11:26:43;101144.41;;;34.63;34.75
16580;BME280;8402;51.466;6.806;2022-09-06T11:29:23;101148.00;;;34.73;34.14
16580;BME280;8402;51.466;6.806;2022-09-06T11:31:53;101145.69;;;34.53;32.94
16580;BME280;8402;51.466;6.806;2022-09-06T11:34:50;101147.66;;;34.34;33.88
16580;BME280;8402;51.466;6.806;2022-09-06T11:37:25;101155.34;;;34.25;33.71
16580;BME280;8402;51.466;6.806;2022-09-06T11:40:06;101156.91;;;34.26;33.50
16580;BME280;8402;51.466;6.806;2022-09-06T11:43:13;101157.06;;;34.13;33.88
16580;BME280;8402;51.466;6.806;2022-09-06T11:45:44;101150.19;;;34.23;33.65
16580;BME280;8402;51.466;6.806;2022-09-06T11:48:48;101153.31;;;34.25;33.73
16580;BME280;8402;51.466;6.806;2022-09-06T11:51:33;101152.41;;;34.46;33.40
16580;BME280;8402;51.466;6.806;2022-09-06T11:54:14;101148.78;;;34.64;33.38
16580;BME280;8402;51.466;6.806;2022-09-06T11:56:54;101147.06;;;34.76;33.83
16580;BME280;8402;51.466;6.806;2022-09-06T11:59:31;101144.69;;;34.84;33.82
16580;BME280;8402;51.466;6.806;2022-09-06T12:02:02;101152.38;;;34.74;33.75
16580;BME280;8402;51.466;6.806;2022-09-06T12:05:13;101139.56;;;34.45;32.45
16580;BME280;8402;51.466;6.806;2022-09-06T12:08:18;101136.41;;;34.25;33.80
16580;BME280;8402;51.466;6.806;2022-09-06T12:10:57;101138.13;;;34.32;33.63
16580;BME280;8402;51.466;6.806;2022-09-06T12:13:41;101143.78;;;34.32;34.27
16580;BME280;8402;51.466;6.806;2022-09-06T12:16:15;101136.75;;;34.45;34.49
16580;BME280;8402;51.466;6.806;2022-09-06T12:19:07;101131.06;;;34.36;34.10
16580;BME280;8402;51.466;6.806;2022-09-06T12:21:45;101129.69;;;34.50;33.61
16580;BME280;8402;51.466;6.806;2022-09-06T12:24:54;101132.19;;;34.57;33.45
16580;BME280;8402;51.466;6.806;2022-09-06T12:27:23;101122.78;;;34.69;34.42
16580;BME280;8402;51.466;6.806;2022-09-06T12:29:55;101128.28;;;34.73;33.70
16580;BME280;8402;51.466;6.806;2022-09-06T12:32:28;101119.97;;;34.69;33.30
16580;BME280;8402;51.466;6.806;2022-09-06T12:35:04;101128.72;;;34.71;33.83
16580;BME280;8402;51.466;6.806;2022-09-06T12:37:54;101120.75;;;34.70;33.97
16580;BME280;8402;51.466;6.806;2022-09-06T12:40:25;101123.72;;;34.75;34.12
16580;BME280;8402;51.466;6.806;2022-09-06T12:42:54;101129.66;;;34.78;33.43
16580;BME280;8402;51.466;6.806;2022-09-06T12:45:23;101119.81;;;34.73;33.65
16580;BME280;8402;51.466;6.806;2022-09-06T12:48:03;101121.25;;;34.59;33.76
16580;BME280;8402;51.466;6.806;2022-09-06T12:50:31;101117.47;;;34.62;33.72
16580;BME280;8402;51.466;6.806;2022-09-06T12:53:01;101116.22;;;34.63;34.00
16580;BME280;8402;51.466;6.806;2022-09-06T12:55:33;101114.34;;;34.69;34.27
16580;BME280;8402;51.466;6.806;2022-09-06T12:58:03;101109.94;;;34.78;34.26
16580;BME280;8402;51.466;6.806;2022-09-06T13:00:34;101105.38;;;34.89;34.22
16580;BME280;8402;51.466;6.806;2022-09-06T13:03:16;101093.00;;;34.78;33.70
16580;BME280;8402;51.466;6.806;2022-09-06T13:05:51;101090.88;;;34.54;33.96
16580;BME280;8402;51.466;6.806;2022-09-06T13:08:25;101095.56;;;34.57;33.34
16580;BME280;8402;51.466;6.806;2022-09-06T13:10:57;101088.81;;;34.64;34.19
16580;BME280;8402;51.466;6.806;2022-09-06T13:13:26;101088.03;;;34.63;33.77
16580;BME280;8402;51.466;6.806;2022-09-06T13:15:54;101090.03;;;34.81;34.19
16580;BME280;8402;51.466;6.806;2022-09-06T13:18:30;101086.25;;;35.02;34.06
16580;BME280;8402;51.466;6.806;2022-09-06T13:20:59;101083.38;;;35.12;33.32
16580;BME280;8402;51.466;6.806;2022-09-06T13:23:29;101076.78;;;35.15;32.45
16580;BME280;8402;51.466;6.806;2022-09-06T13:25:59;101079.72;;;35.20;33.24
16580;BME280;8402;51.466;6.806;2022-09-06T13:28:28;101083.47;;;35.26;33.12
16580;BME280;8402;51.466;6.806;2022-09-06T13:31:02;101077.78;;;35.36;33.36
16580;BME280;8402;51.466;6.806;2022-09-06T13:33:31;101075.13;;;35.41;32.91
16580;BME280;8402;51.466;6.806;2022-09-06T13:36:14;101074.94;;;35.45;31.42
16580;BME280;8402;51.466;6.806;2022-09-06T13:38:44;101065.53;;;35.48;32.33